createdAt,value
2019-03-03T00:00:36.443Z,100606.84
2019-03-03T00:03:05.886Z,100603.08
2019-03-03T00:05:35.289Z,100603.69
2019-03-03T00:08:04.734Z,100595.67
2019-03-03T00:10:34.582Z,100588.43
2019-03-03T00:13:04.033Z,100587.78
2019-03-03T00:15:33.559Z,100587.38
2019-03-03T00:26:29.820Z,100566.59
2019-03-03T00:28:59.622Z,100563.42
2019-03-03T00:31:36.203Z,100562.66
2019-03-03T00:34:05.659Z,100565.61
2019-03-03T00:36:52.982Z,100558.25
2019-03-03T00:39:35.873Z,100563.10
2019-03-03T00:42:09.571Z,100564.52
2019-03-03T00:44:46.347Z,100560.84
2019-03-03T00:47:18.668Z,100554.23
2019-03-03T00:49:49.753Z,100561.56
2019-03-03T00:52:23.534Z,100555.16
2019-03-03T00:54:57.563Z,100559.17
2019-03-03T00:57:28.618Z,100558.92
2019-03-03T01:00:02.618Z,100559.81
2019-03-03T01:02:39.350Z,100559.69
2019-03-03T01:05:10.465Z,100558.64
2019-03-03T01:07:50.202Z,100554.96
2019-03-03T01:10:24.250Z,100551.20
2019-03-03T01:12:58.170Z,100550.65
2019-03-03T01:15:29.830Z,100552.79
2019-03-03T01:18:03.759Z,100544.25
2019-03-03T01:20:34.771Z,100550.80
2019-03-03T01:23:21.733Z,100547.48
2019-03-03T01:25:51.102Z,100544.09
2019-03-03T01:28:20.446Z,100545.19
2019-03-03T01:30:50.100Z,100544.05
2019-03-03T01:33:19.616Z,100545.34
2019-03-03T01:35:48.999Z,100543.36
2019-03-03T01:38:18.341Z,100544.08
2019-03-03T01:40:47.729Z,100524.31
2019-03-03T01:43:17.147Z,100519.00
2019-03-03T01:45:46.517Z,100523.77
2019-03-03T01:48:15.884Z,100512.11
2019-03-03T01:50:45.258Z,100513.05
2019-03-03T01:53:14.628Z,100510.84
2019-03-03T01:55:43.961Z,100513.88
2019-03-03T01:58:13.333Z,100510.16
2019-03-03T02:00:44.902Z,100508.93
2019-03-03T02:03:13.749Z,100512.41
2019-03-03T02:05:43.100Z,100512.52
2019-03-03T02:08:12.472Z,100508.23
2019-03-03T02:10:41.816Z,100505.51
2019-03-03T02:13:11.189Z,100505.41
2019-03-03T02:15:40.533Z,100499.27
2019-03-03T02:18:09.919Z,100491.00
2019-03-03T02:20:39.266Z,100486.80
2019-03-03T02:23:08.686Z,100479.55
2019-03-03T02:25:38.025Z,100479.22
2019-03-03T02:28:07.365Z,100474.61
2019-03-03T02:30:37.301Z,100465.80
2019-03-03T02:33:06.638Z,100472.70
2019-03-03T02:35:36.010Z,100465.80
2019-03-03T02:38:05.342Z,100461.47
2019-03-03T02:40:34.709Z,100463.94
2019-03-03T02:43:04.051Z,100466.63
2019-03-03T02:45:33.427Z,100454.03
2019-03-03T02:48:02.763Z,100454.03
2019-03-03T02:50:32.725Z,100452.34
2019-03-03T02:53:02.074Z,100447.05
2019-03-03T02:55:31.748Z,100449.52
2019-03-03T02:58:01.100Z,100446.94
2019-03-03T03:00:30.912Z,100444.64
2019-03-03T03:03:02.203Z,100436.77
2019-03-03T03:05:42.218Z,100432.53
2019-03-03T03:08:22.160Z,100428.37
2019-03-03T03:11:05.289Z,100436.78
2019-03-03T03:13:52.670Z,100427.84
2019-03-03T03:16:29.740Z,100421.42
2019-03-03T03:19:12.779Z,100428.22
2019-03-03T03:21:58.872Z,100412.42
2019-03-03T03:24:29.845Z,100413.67
2019-03-03T03:27:00.856Z,100412.38
2019-03-03T03:29:43.993Z,100423.12
2019-03-03T03:32:17.677Z,100409.14
2019-03-03T03:35:03.530Z,100412.57
2019-03-03T03:37:46.249Z,100415.16
2019-03-03T03:40:33.192Z,100412.94
2019-03-03T03:43:04.186Z,100408.49
2019-03-03T03:45:50.339Z,100398.80
2019-03-03T03:48:30.030Z,100394.64
2019-03-03T03:51:10.097Z,100384.49
2019-03-03T03:53:57.239Z,100372.94
2019-03-03T03:56:34.181Z,100368.88
2019-03-03T03:59:21.339Z,100354.45
2019-03-03T04:01:55.246Z,100360.39
2019-03-03T04:04:32.837Z,100361.45
2019-03-03T04:07:19.975Z,100358.41
2019-03-03T04:09:54.078Z,100352.52
2019-03-03T04:12:39.672Z,100353.05
2019-03-03T04:15:10.691Z,100340.48
2019-03-03T04:18:00.416Z,100339.78
2019-03-03T04:20:32.818Z,100330.39
2019-03-03T04:23:06.509Z,100331.44
2019-03-03T04:25:49.605Z,100324.63
2019-03-03T04:28:23.645Z,100321.41
2019-03-03T04:30:54.674Z,100319.32
2019-03-03T04:33:25.933Z,100313.16
2019-03-03T04:35:56.941Z,100316.07
2019-03-03T04:38:42.815Z,100312.22
2019-03-03T04:41:19.740Z,100310.21
2019-03-03T04:44:06.664Z,100320.83
2019-03-03T04:46:43.384Z,100325.23
2019-03-03T04:49:30.609Z,100322.63
2019-03-03T04:52:07.425Z,100321.78
2019-03-03T04:54:53.555Z,100315.88
2019-03-03T04:57:27.257Z,100325.35
2019-03-03T05:00:00.988Z,100312.00
2019-03-03T05:02:32.760Z,100309.27
2019-03-03T05:05:03.741Z,100310.53
2019-03-03T05:07:52.848Z,100304.84
2019-03-03T05:10:35.628Z,100299.58
2019-03-03T05:13:06.710Z,100300.83
2019-03-03T05:15:49.718Z,100292.44
2019-03-03T05:18:23.706Z,100299.62
2019-03-03T05:20:53.059Z,100292.33
2019-03-03T05:23:22.436Z,100290.22
2019-03-03T05:25:51.787Z,100282.62
2019-03-03T05:28:21.165Z,100279.50
2019-03-03T05:30:50.504Z,100278.42
2019-03-03T05:33:19.885Z,100282.08
2019-03-03T05:35:49.226Z,100270.67
2019-03-03T05:38:18.576Z,100273.34
2019-03-03T05:40:47.948Z,100270.47
2019-03-03T05:43:17.292Z,100268.29
2019-03-03T05:45:46.665Z,100271.73
2019-03-03T05:48:16.005Z,100265.02
2019-03-03T05:50:46.881Z,100268.00
2019-03-03T05:53:16.706Z,100263.21
2019-03-03T05:55:46.080Z,100265.02
2019-03-03T05:58:15.413Z,100260.09
2019-03-03T06:00:44.781Z,100266.42
2019-03-03T06:03:14.199Z,100257.20
2019-03-03T06:05:43.590Z,100262.98
2019-03-03T06:08:13.004Z,100255.45
2019-03-03T06:10:42.391Z,100251.87
2019-03-03T06:13:11.772Z,100254.77
2019-03-03T06:15:41.159Z,100262.00
2019-03-03T06:18:10.493Z,100254.06
2019-03-03T06:20:39.862Z,100256.30
2019-03-03T06:23:09.196Z,100260.41
2019-03-03T06:25:38.568Z,100255.06
2019-03-03T06:28:07.973Z,100254.55
2019-03-03T06:30:37.355Z,100254.76
2019-03-03T06:33:06.699Z,100248.66
2019-03-03T06:35:36.069Z,100234.34
2019-03-03T06:38:05.406Z,100234.25
2019-03-03T06:40:34.964Z,100237.90
2019-03-03T06:43:04.301Z,100230.11
2019-03-03T06:45:33.676Z,100224.77
2019-03-03T06:48:03.015Z,100221.12
2019-03-03T06:50:32.934Z,100216.91
2019-03-03T06:53:02.349Z,100206.44
2019-03-03T06:55:31.921Z,100202.19
2019-03-03T06:58:01.271Z,100211.72
2019-03-03T07:00:31.092Z,100214.55
2019-03-03T07:03:00.688Z,100215.05
2019-03-03T07:05:30.062Z,100225.23
2019-03-03T07:07:59.688Z,100219.20
2019-03-03T07:10:29.079Z,100222.09
2019-03-03T07:12:59.206Z,100221.09
2019-03-03T07:15:28.581Z,100222.84
2019-03-03T07:17:57.969Z,100207.95
2019-03-03T07:20:27.311Z,100205.66
2019-03-03T07:22:56.682Z,100187.95
2019-03-03T07:25:26.022Z,100183.41
2019-03-03T07:27:55.395Z,100182.79
2019-03-03T07:30:24.740Z,100172.63
2019-03-03T07:33:04.515Z,100174.56
2019-03-03T07:35:33.923Z,100179.78
2019-03-03T07:38:03.296Z,100187.80
2019-03-03T07:40:32.642Z,100190.06
2019-03-03T07:43:02.177Z,100182.11
2019-03-03T07:45:31.512Z,100193.08
2019-03-03T07:48:00.888Z,100193.36
2019-03-03T07:50:30.670Z,100193.31
2019-03-03T07:53:00.046Z,100198.52
2019-03-03T07:55:29.383Z,100196.52
2019-03-03T07:57:58.987Z,100188.91
2019-03-03T08:00:28.519Z,100185.97
2019-03-03T08:02:57.980Z,100180.25
2019-03-03T08:05:27.318Z,100189.18
2019-03-03T08:07:56.750Z,100190.59
2019-03-03T08:10:26.094Z,100186.45
2019-03-03T08:12:55.473Z,100171.52
2019-03-03T08:15:24.848Z,100172.67
2019-03-03T08:17:54.309Z,100167.68
2019-03-03T08:20:23.654Z,100167.25
2019-03-03T08:22:53.032Z,100162.42
2019-03-03T08:25:22.370Z,100153.30
2019-03-03T08:27:51.740Z,100169.88
2019-03-03T08:30:21.087Z,100160.19
2019-03-03T08:32:50.471Z,100157.77
2019-03-03T08:35:21.950Z,100155.28
2019-03-03T08:37:52.397Z,100144.66
2019-03-03T08:40:21.730Z,100144.66
2019-03-03T08:43:04.560Z,100142.80
2019-03-03T08:45:35.535Z,100140.00
2019-03-03T08:48:09.499Z,100139.89
2019-03-03T08:50:46.169Z,100136.16
2019-03-03T08:53:17.178Z,100133.05
2019-03-03T08:55:51.199Z,100132.28
2019-03-03T08:58:40.377Z,100132.08
2019-03-03T09:01:17.416Z,100127.45
2019-03-03T09:03:48.421Z,100129.26
2019-03-03T09:06:25.109Z,100123.18
2019-03-03T09:09:02.084Z,100124.25
2019-03-03T09:11:33.072Z,100108.02
2019-03-03T09:14:05.595Z,100114.83
2019-03-03T09:16:48.853Z,100117.62
2019-03-03T09:19:35.784Z,100108.86
2019-03-03T09:22:21.533Z,100118.45
2019-03-03T09:25:08.752Z,100119.30
2019-03-03T09:27:42.677Z,100122.45
2019-03-03T09:30:16.894Z,100115.94
2019-03-03T09:33:03.880Z,100118.26
2019-03-03T09:35:40.917Z,100109.70
2019-03-03T09:38:14.588Z,100106.94
2019-03-03T09:40:45.601Z,100105.77
2019-03-03T09:43:16.572Z,100104.64
2019-03-03T09:45:56.381Z,100088.88
2019-03-03T09:48:42.496Z,100087.86
2019-03-03T09:51:19.359Z,100085.41
2019-03-03T09:53:56.133Z,100091.42
2019-03-03T09:56:27.144Z,100089.65
2019-03-03T09:59:14.064Z,100088.88
2019-03-03T10:01:50.760Z,100085.63
2019-03-03T10:04:30.522Z,100079.03
2019-03-03T10:07:13.746Z,100077.84
2019-03-03T10:10:00.918Z,100066.61
2019-03-03T10:12:34.882Z,100067.92
2019-03-03T10:15:22.979Z,100061.93
2019-03-03T10:17:53.991Z,100059.97
2019-03-03T10:20:41.018Z,100047.24
2019-03-03T10:23:14.725Z,100054.86
2019-03-03T10:26:01.956Z,100059.48
2019-03-03T10:28:35.817Z,100058.05
2019-03-03T10:31:09.596Z,100060.98
2019-03-03T10:33:52.292Z,100063.69
2019-03-03T10:36:28.972Z,100071.88
2019-03-03T10:39:03.287Z,100073.28
2019-03-03T10:41:40.317Z,100068.27
2019-03-03T10:44:27.286Z,100066.12
2019-03-03T10:47:16.119Z,100064.82
2019-03-03T10:49:55.695Z,100063.88
2019-03-03T10:52:26.699Z,100056.91
2019-03-03T10:55:00.544Z,100052.05
2019-03-03T10:57:31.536Z,100045.64
2019-03-03T11:00:04.928Z,100048.62
2019-03-03T11:02:44.950Z,100031.78
2019-03-03T11:05:31.633Z,100039.17
2019-03-03T11:08:10.199Z,100030.27
2019-03-03T11:10:43.759Z,100020.66
2019-03-03T11:13:24.269Z,100023.41
2019-03-03T11:15:58.139Z,100037.63
2019-03-03T11:18:31.936Z,100030.97
2019-03-03T11:21:08.956Z,100022.09
2019-03-03T11:23:45.978Z,100011.86
2019-03-03T11:26:16.999Z,100003.78
2019-03-03T11:29:03.898Z,100003.68
2019-03-03T11:31:46.586Z,99993.58
2019-03-03T11:34:26.650Z,99987.48
2019-03-03T11:37:00.429Z,99984.39
2019-03-03T11:39:34.091Z,99984.84
2019-03-03T11:42:16.919Z,99980.31
2019-03-03T11:44:53.940Z,99983.08
2019-03-03T11:47:39.960Z,99976.16
2019-03-03T11:50:11.397Z,99977.59
2019-03-03T11:52:57.474Z,99976.98
2019-03-03T11:55:37.281Z,99985.92
2019-03-03T11:58:08.566Z,99991.66
2019-03-03T12:00:42.543Z,99983.66
2019-03-03T12:03:13.650Z,99981.89
2019-03-03T12:05:44.693Z,99990.70
2019-03-03T12:08:18.396Z,99987.70
2019-03-03T12:11:07.286Z,99966.52
2019-03-03T12:13:40.971Z,99970.67
2019-03-03T12:16:11.969Z,99966.25
2019-03-03T12:18:57.780Z,99954.71
2019-03-03T12:21:44.743Z,99956.97
2019-03-03T12:24:21.449Z,99954.59
2019-03-03T12:27:04.585Z,99961.84
2019-03-03T12:29:39.275Z,99956.49
2019-03-03T12:32:13.073Z,99955.77
2019-03-03T12:34:44.096Z,99948.00
2019-03-03T12:37:15.077Z,99956.67
2019-03-03T12:39:52.125Z,99953.11
2019-03-03T12:42:26.099Z,99945.95
2019-03-03T12:45:09.416Z,99939.87
2019-03-03T12:47:56.591Z,99941.98
2019-03-03T12:50:28.483Z,99938.92
2019-03-03T12:53:15.467Z,99943.58
2019-03-03T12:56:01.285Z,99933.09
2019-03-03T12:58:32.254Z,99941.70
2019-03-03T13:01:09.029Z,99937.63
2019-03-03T13:03:49.062Z,99941.81
2019-03-03T13:06:24.258Z,99944.44
2019-03-03T13:08:59.493Z,99940.50
2019-03-03T13:11:44.341Z,99952.17
2019-03-03T13:14:31.562Z,99935.30
2019-03-03T13:17:18.515Z,99925.66
2019-03-03T13:20:04.706Z,99937.56
2019-03-03T13:22:51.467Z,99928.50
2019-03-03T13:25:22.442Z,99929.45
2019-03-03T13:27:55.841Z,99930.89
2019-03-03T13:30:26.818Z,99932.36
2019-03-03T13:33:12.599Z,99937.34
2019-03-03T13:35:52.428Z,99934.28
2019-03-03T13:38:39.409Z,99940.84
2019-03-03T13:41:22.182Z,99938.58
2019-03-03T13:43:51.552Z,99948.58
2019-03-03T13:46:20.895Z,99944.62
2019-03-03T13:48:51.306Z,99935.79
2019-03-03T13:51:20.780Z,99943.98
2019-03-03T13:53:50.182Z,99939.19
2019-03-03T13:56:19.512Z,99943.20
2019-03-03T13:58:48.893Z,99938.42
2019-03-03T14:01:18.271Z,99941.45
2019-03-03T14:03:47.609Z,99947.37
2019-03-03T14:06:16.974Z,99938.58
2019-03-03T14:08:46.302Z,99935.59
2019-03-03T14:11:15.659Z,99929.76
2019-03-03T14:13:45.063Z,99934.40
2019-03-03T14:16:15.201Z,99935.19
2019-03-03T14:18:44.554Z,99932.23
2019-03-03T14:21:13.921Z,99930.29
2019-03-03T14:23:43.245Z,99934.41
2019-03-03T14:26:12.609Z,99928.44
2019-03-03T14:28:41.936Z,99928.88
2019-03-03T14:31:11.292Z,99930.30
2019-03-03T14:33:40.619Z,99924.93
2019-03-03T14:36:09.975Z,99928.13
2019-03-03T14:38:39.305Z,99927.77
2019-03-03T14:41:08.670Z,99922.20
2019-03-03T14:43:37.992Z,99922.66
2019-03-03T14:46:07.349Z,99921.11
2019-03-03T14:48:36.682Z,99918.13
2019-03-03T14:51:06.130Z,99919.34
2019-03-03T14:53:35.474Z,99916.11
2019-03-03T14:56:04.838Z,99922.17
2019-03-03T14:58:34.199Z,99914.43
2019-03-03T15:01:03.945Z,99915.73
2019-03-03T15:03:33.302Z,99911.20
2019-03-03T15:06:02.631Z,99907.53
2019-03-03T15:08:32.171Z,99905.73
2019-03-03T15:11:01.818Z,99914.16
2019-03-03T15:13:31.170Z,99910.23
2019-03-03T15:16:00.517Z,99909.49
2019-03-03T15:18:29.950Z,99901.10
2019-03-03T15:20:59.275Z,99906.88
2019-03-03T15:23:28.640Z,99901.53
2019-03-03T15:25:57.963Z,99900.33
2019-03-03T15:28:27.325Z,99905.08
2019-03-03T15:30:56.667Z,99895.70
2019-03-03T15:33:26.082Z,99896.16
2019-03-03T15:35:55.419Z,99893.20
2019-03-03T15:38:24.775Z,99893.77
2019-03-03T15:40:54.113Z,99897.34
2019-03-03T15:43:23.479Z,99889.02
2019-03-03T15:45:52.815Z,99889.98
2019-03-03T15:48:22.177Z,99894.73
2019-03-03T15:50:51.511Z,99887.58
2019-03-03T15:53:20.864Z,99881.90
2019-03-03T15:55:50.195Z,99886.96
2019-03-03T15:58:19.572Z,99886.96
2019-03-03T16:00:49.385Z,99879.97
2019-03-03T16:03:18.757Z,99880.91
2019-03-03T16:05:48.088Z,99889.20
2019-03-03T16:08:17.448Z,99887.64
2019-03-03T16:10:46.779Z,99883.39
2019-03-03T16:13:16.144Z,99878.05
2019-03-03T16:15:45.470Z,99885.50
2019-03-03T16:18:14.971Z,99886.80
2019-03-03T16:20:44.317Z,99875.77
2019-03-03T16:23:13.725Z,99879.06
2019-03-03T16:25:43.100Z,99874.90
2019-03-03T16:28:12.457Z,99875.70
2019-03-03T16:30:41.805Z,99875.62
2019-03-03T16:33:20.007Z,99869.69
2019-03-03T16:35:42.194Z,99868.22
2019-03-03T16:38:11.563Z,99863.03
2019-03-03T16:40:40.900Z,99868.84
2019-03-03T16:43:10.266Z,99861.48
2019-03-03T16:45:39.615Z,99862.32
2019-03-03T16:48:09.147Z,99860.17
2019-03-03T16:50:38.476Z,99861.02
2019-03-03T16:53:07.838Z,99862.32
2019-03-03T16:55:37.304Z,99862.20
2019-03-03T16:58:06.666Z,99863.03
2019-03-03T17:00:36.006Z,99862.11
2019-03-03T17:03:05.370Z,99860.34
2019-03-03T17:05:34.836Z,99857.23
2019-03-03T17:08:06.851Z,99855.71
2019-03-03T17:10:36.179Z,99854.78
2019-03-03T17:13:05.676Z,99851.70
2019-03-03T17:15:35.002Z,99857.30
2019-03-03T17:18:04.371Z,99860.16
2019-03-03T17:20:34.208Z,99856.02
2019-03-03T17:23:03.564Z,99857.88
2019-03-03T17:25:33.324Z,99850.80
2019-03-03T17:28:02.727Z,99849.13
2019-03-03T17:30:32.410Z,99851.36
2019-03-03T17:33:02.127Z,99850.43
2019-03-03T17:35:31.558Z,99851.14
2019-03-03T17:38:00.899Z,99847.23
2019-03-03T17:40:30.268Z,99853.75
2019-03-03T17:42:59.594Z,99847.45
2019-03-03T17:45:29.406Z,99842.69
2019-03-03T17:47:58.742Z,99847.45
2019-03-03T17:50:29.239Z,99843.19
2019-03-03T17:52:58.565Z,99841.73
2019-03-03T17:55:27.941Z,99838.50
2019-03-03T17:57:57.261Z,99836.86
2019-03-03T18:00:29.172Z,99835.27
2019-03-03T18:02:58.580Z,99831.23
2019-03-03T18:05:27.945Z,99824.34
2019-03-03T18:07:57.435Z,99825.05
2019-03-03T18:10:26.829Z,99822.66
2019-03-03T18:12:56.165Z,99819.13
2019-03-03T18:15:25.532Z,99822.32
2019-03-03T18:17:54.941Z,99816.73
2019-03-03T18:20:24.336Z,99816.61
2019-03-03T18:22:53.663Z,99806.17
2019-03-03T18:25:23.034Z,99797.05
2019-03-03T18:27:52.364Z,99799.28
2019-03-03T18:30:25.787Z,99795.37
2019-03-03T18:32:55.203Z,99795.95
2019-03-03T18:35:24.633Z,99788.01
2019-03-03T18:37:53.967Z,99792.05
2019-03-03T18:40:24.344Z,99788.13
2019-03-03T18:42:53.672Z,99786.45
2019-03-03T18:45:23.599Z,99782.79
2019-03-03T18:47:52.936Z,99778.63
2019-03-03T18:50:29.662Z,99777.92
2019-03-03T18:53:00.174Z,99779.94
2019-03-03T18:55:29.581Z,99776.48
2019-03-03T18:57:59.002Z,99779.56
2019-03-03T19:00:32.011Z,99766.30
2019-03-03T19:03:01.349Z,99765.00
2019-03-03T19:05:31.280Z,99765.22
2019-03-03T19:08:00.617Z,99762.61
2019-03-03T19:10:37.598Z,99763.08
2019-03-03T19:13:07.020Z,99751.34
2019-03-03T19:15:36.387Z,99749.10
2019-03-03T19:18:05.729Z,99753.73
2019-03-03T19:20:35.100Z,99747.20
2019-03-03T19:23:04.435Z,99758.48
2019-03-03T19:25:34.159Z,99744.88
2019-03-03T19:28:03.502Z,99749.59
2019-03-03T19:30:33.274Z,99749.97
2019-03-03T19:33:17.727Z,99743.08
2019-03-03T19:35:47.115Z,99747.83
2019-03-03T19:38:16.522Z,99741.21
2019-03-03T19:40:45.960Z,99744.06
2019-03-03T19:43:15.420Z,99741.45
2019-03-03T19:46:00.060Z,99734.81
2019-03-03T19:48:29.693Z,99736.11
2019-03-03T19:50:59.499Z,99742.07
2019-03-03T19:53:28.863Z,99734.34
2019-03-03T19:55:58.189Z,99736.95
2019-03-03T19:58:27.562Z,99729.59
2019-03-03T20:00:56.894Z,99715.98
2019-03-03T20:03:26.283Z,99719.40
2019-03-03T20:05:57.593Z,99715.86
2019-03-03T20:08:26.687Z,99725.83
2019-03-03T20:10:56.018Z,99720.98
2019-03-03T20:13:26.639Z,99707.81
2019-03-03T20:15:56.169Z,99717.65
2019-03-03T20:18:25.501Z,99707.59
2019-03-03T20:20:54.874Z,99708.52
2019-03-03T20:23:24.209Z,99708.42
2019-03-03T20:25:53.592Z,99707.72
2019-03-03T20:28:23.491Z,99713.17
2019-03-03T20:30:52.878Z,99715.66
2019-03-03T20:33:22.218Z,99699.53
2019-03-03T20:35:51.588Z,99697.86
2019-03-03T20:38:20.969Z,99699.53
2019-03-03T20:40:50.301Z,99693.63
2019-03-03T20:43:19.678Z,99699.44
2019-03-03T20:45:49.023Z,99695.39
2019-03-03T20:48:18.380Z,99699.31
2019-03-03T20:50:47.890Z,99689.94
2019-03-03T20:53:19.374Z,99687.20
2019-03-03T20:55:48.369Z,99689.09
2019-03-03T20:58:17.746Z,99681.73
2019-03-03T21:00:47.087Z,99678.66
2019-03-03T21:03:16.522Z,99670.00
2019-03-03T21:05:45.898Z,99665.25
2019-03-03T21:08:15.235Z,99668.70
2019-03-03T21:10:44.673Z,99660.55
2019-03-03T21:13:14.012Z,99659.80
2019-03-03T21:15:43.386Z,99657.56
2019-03-03T21:18:12.709Z,99655.89
2019-03-03T21:20:42.087Z,99661.61
2019-03-03T21:23:11.425Z,99646.66
2019-03-03T21:25:40.784Z,99663.38
2019-03-03T21:28:10.139Z,99650.20
2019-03-03T21:30:39.538Z,99647.12
2019-03-03T21:33:08.966Z,99646.19
2019-03-03T21:35:38.418Z,99632.55
2019-03-03T21:38:07.736Z,99631.34
2019-03-03T21:40:37.139Z,99638.23
2019-03-03T21:43:06.526Z,99634.32
2019-03-03T21:45:36.452Z,99630.31
2019-03-03T21:48:05.833Z,99631.11
2019-03-03T21:50:35.207Z,99626.73
2019-03-03T21:53:04.543Z,99622.95
2019-03-03T21:55:34.665Z,99623.05
2019-03-03T21:58:03.994Z,99624.59
2019-03-03T22:00:36.405Z,99619.60
2019-03-03T22:03:05.744Z,99606.83
2019-03-03T22:05:35.374Z,99603.72
2019-03-03T22:08:05.302Z,99611.08
2019-03-03T22:10:34.720Z,99600.30
2019-03-03T22:13:07.413Z,99608.59
2019-03-03T22:15:36.823Z,99605.25
2019-03-03T22:18:06.247Z,99598.63
2019-03-03T22:20:35.664Z,99602.07
2019-03-03T22:23:05.091Z,99601.84
2019-03-03T22:25:34.435Z,99595.08
2019-03-03T22:28:03.865Z,99595.65
2019-03-03T22:30:33.674Z,99590.90
2019-03-03T22:33:03.054Z,99586.52
2019-03-03T22:35:32.448Z,99587.82
2019-03-03T22:38:01.879Z,99581.30
2019-03-03T22:40:31.617Z,99579.77
2019-03-03T22:43:01.026Z,99575.75
2019-03-03T22:45:30.378Z,99573.61
2019-03-03T22:47:59.711Z,99571.94
2019-03-03T22:50:29.086Z,99565.87
2019-03-03T22:52:58.433Z,99565.41
2019-03-03T22:55:31.510Z,99565.64
2019-03-03T22:58:00.911Z,99555.58
2019-03-03T23:00:46.602Z,99558.19
2019-03-03T23:03:22.083Z,99562.09
2019-03-03T23:05:54.791Z,99553.80
2019-03-03T23:08:48.114Z,99548.58
2019-03-03T23:11:49.015Z,99554.14
2019-03-03T23:14:33.233Z,99544.91
2019-03-03T23:17:14.759Z,99545.74
2019-03-03T23:19:52.920Z,99544.67
2019-03-03T23:22:28.403Z,99541.59
2019-03-03T23:25:23.478Z,99539.78
2019-03-03T23:27:52.845Z,99536.70
2019-03-03T23:30:22.180Z,99533.77
2019-03-03T23:32:51.538Z,99536.84
2019-03-03T23:35:20.890Z,99528.31
2019-03-03T23:37:50.247Z,99531.86
2019-03-03T23:40:19.600Z,99529.12
2019-03-03T23:42:49.006Z,99519.28
2019-03-03T23:45:18.428Z,99516.91
2019-03-03T23:47:47.836Z,99513.95
2019-03-03T23:50:17.186Z,99519.28
2019-03-03T23:52:46.587Z,99517.38
2019-03-03T23:55:15.946Z,99513.59
2019-03-03T23:57:45.367Z,99508.74
